Time;durP1;ratioP1;P1;durP2;ratioP2;P2;SDS_P1;SDS_P2;PMS_P1;PMS_P2;Temp;Humidity;BMP_temperature;BMP_pressure;BME280_temperature;BME280_humidity;BME280_pressure;Samples;Min_cycle;Max_cycle;Signal;HPM_P1;HPM_P2
2023/03/20 00:01:25;;;;;;;18.45;9.32;;;9.00;99.90;;;;;;5051016;28;20037;-65
2023/03/20 00:03:51;;;;;;;22.55;9.50;;;8.90;99.90;;;;;;5038665;28;20088;-64
2023/03/20 00:06:20;;;;;;;24.70;11.30;;;9.00;99.90;;;;;;5044644;28;20028;-64
2023/03/20 00:08:47;;;;;;;25.17;11.82;;;8.90;99.90;;;;;;5039599;28;20407;-64
2023/03/20 00:11:35;;;;;;;26.20;11.07;;;8.90;99.90;;;;;;5041011;28;20039;-64
2023/03/20 00:14:06;;;;;;;26.30;11.18;;;8.90;99.90;;;;;;5042785;28;20120;-64
2023/03/20 00:16:42;;;;;;;21.42;11.02;;;8.90;99.90;;;;;;5042196;28;20037;-64
2023/03/20 00:19:22;;;;;;;26.60;12.18;;;8.90;99.90;;;;;;5051456;28;20047;-64
2023/03/20 00:21:49;;;;;;;24.08;12.13;;;8.90;99.90;;;;;;5038980;28;20399;-64
2023/03/20 00:24:16;;;;;;;22.85;10.55;;;8.90;99.90;;;;;;5038518;28;20051;-64
2023/03/20 00:26:43;;;;;;;24.60;11.90;;;8.90;99.90;;;;;;5051796;28;20056;-64
2023/03/20 00:29:21;;;;;;;28.52;13.15;;;8.90;99.90;;;;;;5023649;28;20100;-63
2023/03/20 00:31:47;;;;;;;29.50;12.43;;;8.90;99.90;;;;;;5044331;28;20079;-64
2023/03/20 00:34:14;;;;;;;30.63;14.13;;;8.90;99.90;;;;;;5050855;28;20492;-65
2023/03/20 00:36:40;;;;;;;33.25;15.18;;;8.90;99.90;;;;;;5042593;28;20095;-64
2023/03/20 00:39:06;;;;;;;33.00;13.85;;;8.90;99.90;;;;;;5042064;28;20048;-64
2023/03/20 00:41:38;;;;;;;32.95;13.30;;;8.80;99.90;;;;;;5050528;28;20044;-64
2023/03/20 00:44:27;;;;;;;32.03;12.60;;;8.80;99.90;;;;;;5046270;28;20072;-64
2023/03/20 00:46:59;;;;;;;29.55;11.95;;;8.80;99.90;;;;;;5046421;28;20124;-64
2023/03/20 00:49:27;;;;;;;30.40;12.38;;;8.80;99.90;;;;;;5050115;28;20041;-64
2023/03/20 00:51:53;;;;;;;26.90;12.35;;;8.80;99.90;;;;;;5050593;28;20033;-64
2023/03/20 00:54:19;;;;;;;28.95;11.65;;;8.80;99.90;;;;;;5045872;28;20403;-64
2023/03/20 00:56:53;;;;;;;28.92;12.15;;;8.80;99.90;;;;;;5035961;28;20087;-64
2023/03/20 00:59:21;;;;;;;30.02;12.07;;;8.80;99.90;;;;;;5050045;28;20082;-64
2023/03/20 01:01:47;;;;;;;29.63;11.98;;;8.80;99.90;;;;;;5042167;28;20029;-64
2023/03/20 01:04:16;;;;;;;25.40;11.35;;;8.80;99.90;;;;;;5034567;28;20040;-64
2023/03/20 01:06:43;;;;;;;26.40;10.68;;;8.80;99.90;;;;;;5050223;28;20037;-64
2023/03/20 01:09:09;;;;;;;20.27;9.25;;;8.80;99.90;;;;;;5049794;28;20140;-64
2023/03/20 01:11:36;;;;;;;21.85;8.88;;;8.80;99.90;;;;;;5036294;28;20041;-64
2023/03/20 01:14:02;;;;;;;18.40;8.00;;;8.80;99.90;;;;;;5048331;28;20029;-64
2023/03/20 01:16:28;;;;;;;20.85;8.75;;;8.80;99.90;;;;;;5050351;28;20048;-64
2023/03/20 01:18:53;;;;;;;15.95;7.47;;;8.70;99.90;;;;;;5035053;28;20034;-65
2023/03/20 01:21:20;;;;;;;19.90;8.85;;;8.70;99.90;;;;;;5047391;28;20053;-65
2023/03/20 01:23:46;;;;;;;19.17;8.13;;;8.70;99.90;;;;;;5049823;28;20081;-64
2023/03/20 01:26:22;;;;;;;23.25;8.27;;;8.70;99.90;;;;;;5042761;28;20087;-64
2023/03/20 01:28:50;;;;;;;17.05;7.85;;;8.70;99.90;;;;;;5039639;28;20036;-64
2023/03/20 01:31:16;;;;;;;15.10;7.60;;;8.70;99.90;;;;;;5059149;22;20124;-64
2023/03/20 01:33:42;;;;;;;19.33;8.48;;;8.60;99.90;;;;;;5042207;28;20045;-64
2023/03/20 01:36:10;;;;;;;17.20;7.75;;;8.60;99.90;;;;;;5044210;28;20033;-63
2023/03/20 01:38:37;;;;;;;14.15;7.20;;;8.60;99.90;;;;;;5040942;28;20092;-64
2023/03/20 01:41:09;;;;;;;15.43;7.13;;;8.60;99.90;;;;;;5050927;28;20123;-63
2023/03/20 01:43:34;;;;;;;15.10;7.20;;;8.60;99.90;;;;;;5042922;28;20033;-63
2023/03/20 01:46:10;;;;;;;18.13;6.80;;;8.60;99.90;;;;;;5039487;28;20033;-63
2023/03/20 01:48:51;;;;;;;15.07;7.22;;;8.60;99.90;;;;;;5050112;28;20037;-63
2023/03/20 01:51:17;;;;;;;12.82;6.13;;;8.50;99.90;;;;;;5045831;28;20513;-63
2023/03/20 01:53:46;;;;;;;14.48;7.00;;;8.50;99.90;;;;;;5053073;28;20028;-63
2023/03/20 01:56:14;;;;;;;12.70;7.03;;;8.50;99.90;;;;;;5053612;28;20029;-63
2023/03/20 01:58:45;;;;;;;15.98;7.10;;;8.50;99.90;;;;;;5053337;28;20075;-63
2023/03/20 02:01:12;;;;;;;18.58;6.88;;;8.50;99.90;;;;;;5046520;28;20044;-63
2023/03/20 02:03:43;;;;;;;16.00;6.60;;;8.50;99.90;;;;;;5053448;28;20040;-64
2023/03/20 02:06:09;;;;;;;20.23;7.73;;;8.50;99.90;;;;;;5053809;28;20044;-63
2023/03/20 02:08:43;;;;;;;14.98;7.20;;;8.50;99.90;;;;;;5043778;28;20037;-64
2023/03/20 02:11:11;;;;;;;18.75;7.78;;;8.40;99.90;;;;;;5042936;28;20399;-64
2023/03/20 02:13:38;;;;;;;21.17;8.38;;;8.40;99.90;;;;;;5051755;28;20041;-64
2023/03/20 02:16:10;;;;;;;20.92;8.82;;;8.40;99.90;;;;;;5053612;28;20174;-63
2023/03/20 02:18:38;;;;;;;20.70;9.18;;;8.40;99.90;;;;;;5040838;28;20491;-63
2023/03/20 02:21:38;;;;;;;20.35;9.82;;;8.40;99.90;;;;;;5053128;28;20056;-63
2023/03/20 02:24:42;;;;;;;23.63;9.38;;;8.50;99.90;;;;;;5032952;28;20411;-63
2023/03/20 02:27:31;;;;;;;22.85;9.85;;;8.40;99.90;;;;;;5035478;28;20060;-63
2023/03/20 02:30:31;;;;;;;23.55;10.40;;;8.40;99.90;;;;;;5047522;28;20049;-63
2023/03/20 02:33:27;;;;;;;22.45;9.68;;;8.40;99.90;;;;;;5048192;28;20051;-63
2023/03/20 02:36:09;;;;;;;21.58;10.80;;;8.40;99.90;;;;;;5053536;28;20119;-63
2023/03/20 02:38:53;;;;;;;23.65;10.82;;;8.40;99.90;;;;;;5038500;28;20406;-64
2023/03/20 02:41:45;;;;;;;21.48;10.63;;;8.40;99.90;;;;;;5051339;28;20048;-63
2023/03/20 02:44:35;;;;;;;26.15;11.23;;;8.40;99.90;;;;;;5044285;28;20053;-63
2023/03/20 02:47:15;;;;;;;28.08;11.80;;;8.40;99.90;;;;;;5048474;28;20075;-64
2023/03/20 02:50:11;;;;;;;26.30;11.80;;;8.40;99.90;;;;;;5046473;28;20044;-63
2023/03/20 02:53:05;;;;;;;26.70;12.40;;;8.40;99.90;;;;;;5051914;28;20060;-64
2023/03/20 02:55:45;;;;;;;27.20;12.13;;;8.40;99.90;;;;;;5048606;28;20080;-64
2023/03/20 02:58:28;;;;;;;31.98;12.90;;;8.40;99.90;;;;;;5053015;28;20083;-64
2023/03/20 03:01:20;;;;;;;32.03;13.30;;;8.40;99.90;;;;;;5049757;28;20076;-64
2023/03/20 03:03:46;;;;;;;28.38;13.25;;;8.40;99.90;;;;;;5045786;28;20041;-63
2023/03/20 03:06:33;;;;;;;31.55;13.18;;;8.30;99.90;;;;;;5053240;28;20033;-63
2023/03/20 03:09:03;;;;;;;28.70;12.90;;;8.40;99.90;;;;;;5048908;28;20491;-64
2023/03/20 03:11:35;;;;;;;27.60;12.93;;;8.40;99.90;;;;;;5036992;28;20818;-64
2023/03/20 03:14:02;;;;;;;32.67;13.50;;;8.40;99.90;;;;;;5047460;28;20035;-64
2023/03/20 03:16:32;;;;;;;27.80;12.63;;;8.30;99.90;;;;;;5052878;28;20041;-64
2023/03/20 03:19:12;;;;;;;31.70;11.98;;;8.40;99.90;;;;;;5052892;28;20052;-64
2023/03/20 03:21:39;;;;;;;25.23;12.70;;;8.40;99.90;;;;;;5044780;28;20041;-64
2023/03/20 03:24:05;;;;;;;29.27;12.20;;;8.40;99.90;;;;;;5047463;28;20033;-63
2023/03/20 03:26:36;;;;;;;26.33;11.07;;;8.40;99.90;;;;;;5052531;28;20040;-63
2023/03/20 03:29:08;;;;;;;27.75;12.20;;;8.40;99.90;;;;;;5045659;28;20033;-63
2023/03/20 03:31:36;;;;;;;26.75;11.40;;;8.40;99.90;;;;;;5044003;28;20032;-63
2023/03/20 03:34:02;;;;;;;30.38;11.77;;;8.40;99.90;;;;;;5052817;28;20037;-63
2023/03/20 03:37:01;;;;;;;26.13;11.15;;;8.40;99.90;;;;;;5048485;28;20047;-64
2023/03/20 03:39:50;;;;;;;26.65;11.25;;;8.40;99.90;;;;;;5050395;28;20033;-64
2023/03/20 03:42:51;;;;;;;25.77;11.10;;;8.40;99.90;;;;;;5052324;28;20523;-63
2023/03/20 03:45:38;;;;;;;24.57;10.83;;;8.40;99.90;;;;;;4980727;28;20090;-64
2023/03/20 03:48:11;;;;;;;22.83;9.90;;;8.40;99.90;;;;;;5036875;28;20361;-64
2023/03/20 03:50:47;;;;;;;24.45;10.38;;;8.40;99.90;;;;;;5044743;28;20051;-64
2023/03/20 03:53:16;;;;;;;20.92;9.90;;;8.40;99.90;;;;;;5051278;28;20087;-63
2023/03/20 03:55:50;;;;;;;24.25;9.85;;;8.40;99.90;;;;;;5039440;28;20067;-63
2023/03/20 03:58:38;;;;;;;20.75;9.27;;;8.40;99.90;;;;;;5049309;28;20041;-64
2023/03/20 04:01:06;;;;;;;18.70;8.95;;;8.40;99.90;;;;;;5050068;28;20040;-64
2023/03/20 04:03:38;;;;;;;20.35;8.07;;;8.30;99.90;;;;;;5050765;28;20044;-63
2023/03/20 04:06:05;;;;;;;17.70;7.72;;;8.40;99.90;;;;;;5038339;28;20033;-64
2023/03/20 04:08:32;;;;;;;18.05;7.50;;;8.40;99.90;;;;;;5034063;28;20120;-63
2023/03/20 04:10:58;;;;;;;17.85;8.57;;;8.30;99.90;;;;;;5046798;28;20048;-64
2023/03/20 04:13:23;;;;;;;14.27;7.75;;;8.40;99.90;;;;;;5039917;28;20037;-64
2023/03/20 04:15:49;;;;;;;16.20;8.15;;;8.30;99.90;;;;;;5051591;28;20040;-64
2023/03/20 04:18:16;;;;;;;16.40;8.10;;;8.30;99.90;;;;;;5048144;28;20032;-64
2023/03/20 04:20:42;;;;;;;18.67;8.90;;;8.30;99.90;;;;;;5043805;28;20040;-64
2023/03/20 04:23:08;;;;;;;12.88;6.85;;;8.30;99.90;;;;;;5051251;28;20094;-64
2023/03/20 04:25:34;;;;;;;18.40;8.70;;;8.20;99.90;;;;;;5050741;28;20041;-63
2023/03/20 04:27:59;;;;;;;18.98;9.07;;;8.20;99.90;;;;;;5041511;28;20041;-63
2023/03/20 04:30:26;;;;;;;14.73;7.60;;;8.20;99.90;;;;;;5045929;28;20095;-63
2023/03/20 04:32:51;;;;;;;15.80;8.02;;;8.20;99.90;;;;;;5047806;28;20078;-64
2023/03/20 04:35:17;;;;;;;17.48;8.27;;;8.10;99.90;;;;;;5044242;28;20580;-64
2023/03/20 04:37:42;;;;;;;16.00;8.13;;;8.10;99.90;;;;;;5045159;28;20503;-63
2023/03/20 04:40:09;;;;;;;21.75;8.77;;;8.10;99.90;;;;;;5051123;28;20043;-63
2023/03/20 04:42:34;;;;;;;17.60;9.90;;;8.20;99.90;;;;;;5050903;28;20041;-63
2023/03/20 04:45:00;;;;;;;20.70;8.98;;;8.20;99.90;;;;;;5043288;28;20041;-63
2023/03/20 04:47:26;;;;;;;21.35;10.20;;;8.10;99.90;;;;;;5042370;28;20045;-64
2023/03/20 04:49:51;;;;;;;20.27;9.82;;;8.10;99.90;;;;;;5050868;28;20063;-63
2023/03/20 04:52:17;;;;;;;20.30;9.55;;;8.20;99.90;;;;;;5045074;28;20029;-64
2023/03/20 04:54:42;;;;;;;21.45;9.75;;;8.20;99.90;;;;;;5051103;28;20097;-63
2023/03/20 04:57:08;;;;;;;23.60;10.00;;;8.10;99.90;;;;;;5051023;28;20035;-63
2023/03/20 04:59:34;;;;;;;19.77;10.20;;;8.10;99.90;;;;;;5051230;28;20541;-63
2023/03/20 05:01:59;;;;;;;18.98;9.93;;;8.10;99.90;;;;;;5034961;28;20033;-63
2023/03/20 05:04:27;;;;;;;22.55;11.13;;;8.20;99.90;;;;;;5041880;28;20040;-63
2023/03/20 05:06:55;;;;;;;23.50;10.45;;;8.10;99.90;;;;;;5051359;28;20072;-63
2023/03/20 05:09:21;;;;;;;20.75;10.43;;;8.10;99.90;;;;;;5037556;28;20506;-64
2023/03/20 05:11:46;;;;;;;20.92;10.35;;;8.10;99.90;;;;;;5050889;28;20159;-63
2023/03/20 05:14:12;;;;;;;23.15;12.27;;;8.10;99.90;;;;;;5051047;28;20486;-63
2023/03/20 05:16:38;;;;;;;23.42;11.25;;;8.10;99.90;;;;;;5051503;28;20068;-63
2023/03/20 05:19:03;;;;;;;22.60;11.52;;;8.10;99.90;;;;;;5036489;28;20033;-63
2023/03/20 05:21:29;;;;;;;26.05;12.73;;;8.10;99.90;;;;;;5050643;28;20055;-63
2023/03/20 05:23:54;;;;;;;24.33;11.43;;;8.10;99.90;;;;;;5054545;28;20076;-63
2023/03/20 05:26:20;;;;;;;21.63;10.40;;;8.00;99.90;;;;;;5045006;28;20045;-63
2023/03/20 05:28:46;;;;;;;27.35;12.80;;;8.10;99.90;;;;;;5049038;28;20037;-63
2023/03/20 05:31:11;;;;;;;25.92;12.25;;;8.10;99.90;;;;;;5054734;28;20116;-63
2023/03/20 05:33:37;;;;;;;24.35;12.05;;;8.00;99.90;;;;;;5050633;28;20048;-63
2023/03/20 05:36:03;;;;;;;24.15;11.65;;;8.00;99.90;;;;;;5046569;28;20037;-63
2023/03/20 05:38:28;;;;;;;25.30;13.32;;;8.00;99.90;;;;;;5050825;28;20045;-64
2023/03/20 05:40:58;;;;;;;23.90;12.82;;;8.00;99.90;;;;;;5037062;28;20538;-63
2023/03/20 05:43:24;;;;;;;27.33;13.45;;;8.00;99.90;;;;;;5030258;28;20458;-64
2023/03/20 05:45:50;;;;;;;25.52;12.63;;;8.00;99.90;;;;;;5038830;28;20083;-63
2023/03/20 05:48:16;;;;;;;26.00;12.35;;;8.00;99.90;;;;;;5053540;28;20032;-63
2023/03/20 05:50:41;;;;;;;24.50;13.07;;;8.00;99.90;;;;;;5046295;28;20040;-64
2023/03/20 05:53:08;;;;;;;24.13;12.80;;;8.00;99.90;;;;;;5053505;28;20037;-64
2023/03/20 05:55:33;;;;;;;24.65;12.23;;;8.00;99.90;;;;;;5054170;28;20044;-64
2023/03/20 05:57:59;;;;;;;24.13;13.15;;;8.00;99.90;;;;;;5043817;28;20040;-64
2023/03/20 06:00:25;;;;;;;25.02;13.65;;;8.00;99.90;;;;;;5036283;28;20037;-64
2023/03/20 06:02:50;;;;;;;23.13;12.27;;;8.00;99.90;;;;;;5051805;28;20082;-63
2023/03/20 06:05:16;;;;;;;23.85;12.30;;;8.00;99.90;;;;;;5043291;28;20044;-63
2023/03/20 06:07:42;;;;;;;21.13;11.32;;;8.10;99.90;;;;;;5047238;28;20060;-64
2023/03/20 06:10:08;;;;;;;17.10;10.35;;;8.10;99.90;;;;;;5045267;28;20556;-63
2023/03/20 06:12:34;;;;;;;20.45;12.25;;;8.10;99.90;;;;;;5052193;28;20094;-64
2023/03/20 06:15:00;;;;;;;20.88;10.18;;;8.10;99.90;;;;;;5047067;28;20123;-64
2023/03/20 06:17:25;;;;;;;23.05;11.80;;;8.10;99.90;;;;;;5043965;28;20076;-64
2023/03/20 06:19:51;;;;;;;17.85;9.70;;;8.10;99.90;;;;;;5043769;28;20057;-63
2023/03/20 06:22:16;;;;;;;19.38;10.57;;;8.10;99.90;;;;;;5049706;28;20086;-64
2023/03/20 06:24:42;;;;;;;18.90;11.00;;;8.10;99.90;;;;;;5034059;28;20033;-65
2023/03/20 06:27:08;;;;;;;18.77;10.07;;;8.10;99.90;;;;;;5037626;28;20109;-64
2023/03/20 06:29:33;;;;;;;20.48;10.20;;;8.20;99.90;;;;;;5048236;28;20047;-65
2023/03/20 06:31:59;;;;;;;21.35;9.45;;;8.20;99.90;;;;;;5039421;28;20048;-65
2023/03/20 06:34:25;;;;;;;19.92;9.57;;;8.20;99.90;;;;;;5030972;28;20041;-65
2023/03/20 06:36:51;;;;;;;19.13;9.63;;;8.20;99.90;;;;;;5046928;28;20040;-65
2023/03/20 06:39:16;;;;;;;19.45;9.45;;;8.30;99.90;;;;;;5046314;28;20385;-65
2023/03/20 06:41:42;;;;;;;17.40;9.05;;;8.30;99.90;;;;;;5040163;28;20395;-65
2023/03/20 06:44:07;;;;;;;19.00;10.27;;;8.30;99.90;;;;;;5041233;28;20502;-65
2023/03/20 06:46:33;;;;;;;16.92;10.05;;;8.30;99.90;;;;;;5034761;28;20067;-65
2023/03/20 06:48:59;;;;;;;20.63;10.02;;;8.40;99.90;;;;;;5038484;28;20033;-65
2023/03/20 06:51:24;;;;;;;18.38;9.05;;;8.40;99.90;;;;;;5040957;28;20059;-65
2023/03/20 06:53:50;;;;;;;20.08;9.38;;;8.40;99.90;;;;;;5049720;28;20051;-65
2023/03/20 06:56:15;;;;;;;18.52;9.75;;;8.50;99.90;;;;;;5029908;28;20044;-65
2023/03/20 06:58:41;;;;;;;19.60;10.00;;;8.50;99.90;;;;;;5043125;28;20037;-65
2023/03/20 07:01:19;;;;;;;17.15;9.15;;;8.40;99.90;;;;;;5045213;28;20036;-65
2023/03/20 07:03:45;;;;;;;21.02;8.93;;;8.50;99.90;;;;;;5038571;28;20049;-65
2023/03/20 07:06:12;;;;;;;21.83;9.90;;;8.40;99.90;;;;;;5037809;28;20041;-65
2023/03/20 07:08:38;;;;;;;22.45;9.77;;;8.40;99.90;;;;;;5040402;28;20041;-64
2023/03/20 07:11:04;;;;;;;16.75;8.98;;;8.50;99.90;;;;;;5050660;28;20403;-65
2023/03/20 07:13:32;;;;;;;16.13;8.52;;;8.50;99.90;;;;;;5052431;28;20033;-64
2023/03/20 07:16:00;;;;;;;20.23;8.98;;;8.50;99.90;;;;;;5048421;28;20048;-64
2023/03/20 07:18:25;;;;;;;18.70;9.25;;;8.50;99.90;;;;;;5033613;28;20045;-65
2023/03/20 07:20:52;;;;;;;19.17;10.05;;;8.60;99.90;;;;;;5049421;28;20399;-64
2023/03/20 07:23:18;;;;;;;18.88;9.93;;;8.60;99.90;;;;;;5032469;28;20079;-65
2023/03/20 07:25:44;;;;;;;16.30;8.82;;;8.70;99.90;;;;;;5040424;28;20041;-65
2023/03/20 07:28:10;;;;;;;20.23;10.00;;;8.70;99.90;;;;;;5046769;28;20052;-65
2023/03/20 07:30:36;;;;;;;17.58;9.55;;;8.70;99.90;;;;;;5061670;22;20073;-65
2023/03/20 07:33:02;;;;;;;17.77;8.95;;;8.70;99.90;;;;;;5043995;28;20474;-65
2023/03/20 07:35:27;;;;;;;16.30;9.15;;;8.70;99.90;;;;;;5046263;28;20625;-64
2023/03/20 07:37:53;;;;;;;18.67;9.48;;;8.70;99.90;;;;;;5050640;28;20497;-65
2023/03/20 07:40:18;;;;;;;22.00;9.40;;;8.70;99.90;;;;;;5052031;28;20048;-65
2023/03/20 07:42:46;;;;;;;18.08;10.05;;;8.70;99.90;;;;;;5024293;28;20033;-64
2023/03/20 07:45:12;;;;;;;20.70;9.48;;;8.70;99.90;;;;;;5031884;28;20056;-65
2023/03/20 07:47:38;;;;;;;21.38;10.35;;;8.80;99.90;;;;;;5028038;28;20041;-65
2023/03/20 07:50:04;;;;;;;21.10;10.55;;;8.80;99.90;;;;;;5026850;28;20099;-64
2023/03/20 07:52:30;;;;;;;20.80;9.27;;;8.80;99.90;;;;;;5016301;28;20136;-65
2023/03/20 07:54:56;;;;;;;19.75;9.63;;;8.80;99.90;;;;;;5022171;28;20127;-65
2023/03/20 07:57:21;;;;;;;20.42;10.35;;;8.90;99.90;;;;;;5024008;28;20080;-65
2023/03/20 07:59:47;;;;;;;18.42;10.82;;;8.90;99.90;;;;;;5009520;28;20109;-65
2023/03/20 08:02:16;;;;;;;20.27;11.75;;;9.00;99.90;;;;;;5032265;28;20041;-65
2023/03/20 08:04:43;;;;;;;18.60;10.48;;;8.90;99.90;;;;;;5020972;28;20570;-64
2023/03/20 08:07:09;;;;;;;22.65;11.95;;;9.00;99.90;;;;;;5018898;28;20029;-65
2023/03/20 08:09:35;;;;;;;22.30;10.95;;;9.00;99.90;;;;;;5025179;28;20041;-65
2023/03/20 08:12:01;;;;;;;20.05;11.38;;;9.00;99.90;;;;;;5020279;28;20500;-65
2023/03/20 08:14:27;;;;;;;22.77;11.82;;;9.00;99.90;;;;;;5025031;28;20088;-65
2023/03/20 08:16:52;;;;;;;24.55;11.98;;;9.00;99.90;;;;;;5025812;28;20091;-64
2023/03/20 08:19:18;;;;;;;21.60;12.00;;;9.10;99.90;;;;;;5010376;28;20483;-65
2023/03/20 08:21:43;;;;;;;24.42;11.65;;;9.10;99.90;;;;;;5022913;28;20102;-65
2023/03/20 08:24:09;;;;;;;23.10;12.57;;;9.20;99.90;;;;;;5027107;28;20044;-64
2023/03/20 08:26:35;;;;;;;22.20;10.93;;;9.20;99.90;;;;;;5027208;28;20469;-65
2023/03/20 08:29:01;;;;;;;23.50;11.75;;;9.20;99.90;;;;;;5007961;28;20499;-65
2023/03/20 08:31:26;;;;;;;23.75;12.20;;;9.30;99.90;;;;;;5026407;28;20128;-65
2023/03/20 08:33:54;;;;;;;23.77;12.02;;;9.40;99.90;;;;;;5031198;28;20030;-65
2023/03/20 08:36:20;;;;;;;22.02;12.00;;;9.40;99.90;;;;;;5029253;28;20044;-63
2023/03/20 08:38:48;;;;;;;23.15;11.82;;;9.50;99.90;;;;;;5016806;28;20421;-64
2023/03/20 08:41:14;;;;;;;21.67;13.02;;;9.60;99.90;;;;;;5028013;28;20033;-65
2023/03/20 08:43:40;;;;;;;23.52;11.88;;;9.60;99.90;;;;;;5031861;28;20041;-64
2023/03/20 08:46:06;;;;;;;26.08;12.75;;;9.60;99.90;;;;;;5021038;28;20100;-65
2023/03/20 08:48:32;;;;;;;19.05;11.32;;;9.70;99.90;;;;;;5021297;28;20124;-65
2023/03/20 08:50:57;;;;;;;24.40;12.65;;;9.70;99.90;;;;;;4995881;28;20359;-65
2023/03/20 08:53:23;;;;;;;20.75;11.98;;;9.70;99.90;;;;;;5017402;28;20048;-65
2023/03/20 08:55:50;;;;;;;25.58;12.20;;;9.80;99.90;;;;;;5011687;28;20128;-65
2023/03/20 08:58:17;;;;;;;23.73;12.95;;;9.80;99.90;;;;;;5027254;28;20045;-64
2023/03/20 09:00:42;;;;;;;21.52;12.43;;;9.90;99.90;;;;;;5025839;28;20055;-65
2023/03/20 09:03:16;;;;;;;21.23;12.00;;;10.00;99.90;;;;;;5015190;28;20038;-65
2023/03/20 09:05:49;;;;;;;26.45;11.63;;;10.10;99.90;;;;;;5024804;28;20041;-65
2023/03/20 09:08:15;;;;;;;24.08;11.35;;;10.10;99.90;;;;;;4999978;28;20045;-64
2023/03/20 09:10:41;;;;;;;21.73;11.25;;;10.20;99.90;;;;;;5022785;28;20034;-63
2023/03/20 09:13:07;;;;;;;23.65;11.75;;;10.20;99.90;;;;;;5017361;28;20041;-64
2023/03/20 09:15:33;;;;;;;21.67;11.30;;;10.30;99.90;;;;;;5031156;28;20033;-64
2023/03/20 09:17:59;;;;;;;19.17;11.02;;;10.40;99.90;;;;;;5042112;28;20504;-65
2023/03/20 09:20:25;;;;;;;17.58;10.52;;;10.30;99.90;;;;;;5019382;28;20526;-64
2023/03/20 09:22:50;;;;;;;21.35;10.32;;;10.30;99.90;;;;;;5030460;28;20439;-64
2023/03/20 09:25:16;;;;;;;19.75;10.38;;;10.50;99.90;;;;;;5031298;28;20038;-65
2023/03/20 09:27:42;;;;;;;20.58;10.95;;;10.50;99.90;;;;;;5024696;28;20100;-65
2023/03/20 09:30:09;;;;;;;16.45;10.20;;;10.60;99.90;;;;;;5030555;28;20030;-65
2023/03/20 09:32:35;;;;;;;17.48;11.00;;;10.70;99.90;;;;;;5030311;28;20042;-65
2023/03/20 09:35:01;;;;;;;19.35;10.45;;;10.80;99.90;;;;;;5031227;28;20052;-65
2023/03/20 09:37:27;;;;;;;20.27;11.15;;;10.70;99.90;;;;;;5022559;28;20049;-65
2023/03/20 09:39:53;;;;;;;19.05;10.38;;;10.80;99.90;;;;;;5029601;28;20026;-65
2023/03/20 09:42:50;;;;;;;18.70;10.68;;;10.70;99.90;;;;;;5030540;28;20037;-65
2023/03/20 09:45:24;;;;;;;16.40;10.70;;;10.70;99.90;;;;;;5025153;28;20120;-64
2023/03/20 09:48:28;;;;;;;22.38;11.25;;;10.70;99.90;;;;;;5029696;28;20046;-65
2023/03/20 09:51:03;;;;;;;19.77;10.38;;;10.90;99.90;;;;;;5021004;28;20088;-64
2023/03/20 09:53:40;;;;;;;19.58;9.98;;;10.90;99.90;;;;;;5018598;28;20079;-64
2023/03/20 09:56:13;;;;;;;19.75;10.35;;;10.90;99.90;;;;;;5025972;28;20041;-64
2023/03/20 09:58:41;;;;;;;18.10;9.98;;;10.90;99.90;;;;;;5016308;28;20490;-63
2023/03/20 10:01:12;;;;;;;20.05;10.57;;;10.90;99.90;;;;;;5017528;28;20381;-65
2023/03/20 10:03:52;;;;;;;16.50;9.27;;;10.90;99.90;;;;;;5013561;28;20331;-64
2023/03/20 10:06:18;;;;;;;18.08;9.15;;;11.00;99.90;;;;;;5021771;28;20501;-64
2023/03/20 10:08:45;;;;;;;15.73;9.13;;;11.00;99.90;;;;;;5027357;28;20033;-65
2023/03/20 10:11:36;;;;;;;18.52;9.32;;;11.10;99.90;;;;;;5025605;28;20124;-65
2023/03/20 10:14:29;;;;;;;20.88;9.38;;;11.20;99.90;;;;;;5020885;28;20400;-65
2023/03/20 10:17:19;;;;;;;18.20;9.25;;;11.30;99.90;;;;;;5033275;28;20443;-65
2023/03/20 10:20:12;;;;;;;14.90;8.68;;;11.50;99.90;;;;;;5028298;28;20042;-64
2023/03/20 10:22:46;;;;;;;15.93;8.73;;;11.50;99.90;;;;;;5023120;28;20037;-65
2023/03/20 10:25:23;;;;;;;16.55;9.05;;;11.60;99.90;;;;;;5022790;28;20094;-64
2023/03/20 10:27:58;;;;;;;19.25;10.00;;;11.50;99.90;;;;;;5027477;28;20395;-65
2023/03/20 10:30:49;;;;;;;18.10;9.25;;;11.40;99.90;;;;;;5023388;28;20050;-65
2023/03/20 10:33:52;;;;;;;16.73;9.68;;;11.20;99.90;;;;;;5024772;28;20038;-65
2023/03/20 10:36:59;;;;;;;16.45;10.30;;;11.10;99.90;;;;;;5001762;28;20103;-65
2023/03/20 10:39:48;;;;;;;22.30;10.20;;;11.00;99.90;;;;;;4966097;28;20052;-65
2023/03/20 10:42:23;;;;;;;20.00;10.60;;;11.00;99.90;;;;;;5024760;28;20042;-65
2023/03/20 10:45:05;;;;;;;22.55;11.27;;;11.00;99.90;;;;;;5033377;28;20033;-65
2023/03/20 10:47:35;;;;;;;21.83;11.00;;;10.90;99.90;;;;;;5019898;28;20068;-65
2023/03/20 10:50:10;;;;;;;20.25;11.80;;;10.90;99.90;;;;;;5026990;28;20041;-65
2023/03/20 10:52:38;;;;;;;20.88;11.63;;;10.80;99.90;;;;;;5019467;28;20128;-63
2023/03/20 10:55:09;;;;;;;21.60;12.13;;;10.60;99.90;;;;;;5029580;28;20115;-65
2023/03/20 10:57:40;;;;;;;19.55;11.25;;;10.50;99.90;;;;;;5014705;28;20040;-65
2023/03/20 11:00:11;;;;;;;;;;;10.30;99.90;;;;;;5028392;28;20033;-65
2023/03/20 11:02:37;;;;;;;18.23;10.20;;;10.20;99.90;;;;;;5025926;28;19925;-65
2023/03/20 11:05:31;;;;;;;21.77;10.60;;;10.20;99.90;;;;;;5018389;28;20403;-64
2023/03/20 11:08:07;;;;;;;19.65;10.38;;;10.20;99.90;;;;;;5006416;28;20492;-65
2023/03/20 11:10:35;;;;;;;19.55;9.55;;;10.20;99.90;;;;;;5031525;28;20049;-65
2023/03/20 11:13:18;;;;;;;15.15;9.73;;;10.10;99.90;;;;;;5024125;28;20079;-65
2023/03/20 11:15:44;;;;;;;21.30;10.55;;;10.20;99.90;;;;;;5009605;28;20045;-65
2023/03/20 11:18:12;;;;;;;16.45;8.77;;;10.30;99.90;;;;;;5027291;28;20041;-65
2023/03/20 11:20:45;;;;;;;15.88;8.57;;;10.30;99.90;;;;;;5022912;28;20045;-64
2023/03/20 11:23:16;;;;;;;20.35;9.07;;;10.30;99.90;;;;;;5024071;28;20033;-64
2023/03/20 11:25:59;;;;;;;19.23;8.88;;;10.40;99.90;;;;;;5013442;28;20052;-65
2023/03/20 11:28:35;;;;;;;16.35;8.88;;;10.40;99.90;;;;;;5027690;28;20045;-63
2023/03/20 11:31:05;;;;;;;17.73;9.27;;;10.50;99.90;;;;;;5021097;28;20041;-65
2023/03/20 11:33:37;;;;;;;19.77;10.02;;;10.60;99.90;;;;;;5009024;28;20095;-64
2023/03/20 11:36:10;;;;;;;18.25;10.27;;;10.50;99.90;;;;;;5024783;28;20041;-65
2023/03/20 11:38:43;;;;;;;15.75;10.02;;;10.50;99.90;;;;;;5025852;28;20128;-65
2023/03/20 11:41:24;;;;;;;17.38;9.32;;;10.40;99.90;;;;;;5031760;28;20033;-65
2023/03/20 11:43:49;;;;;;;18.65;10.32;;;10.30;99.90;;;;;;5008338;28;21757;-65
2023/03/20 11:46:15;;;;;;;16.55;9.77;;;10.30;99.90;;;;;;5026616;28;20037;-63
2023/03/20 11:48:44;;;;;;;18.00;10.70;;;10.30;99.90;;;;;;5031134;28;20030;-65
2023/03/20 11:51:16;;;;;;;17.35;9.80;;;10.30;99.90;;;;;;5029198;28;20470;-65
2023/03/20 11:53:47;;;;;;;;;;;10.40;99.90;;;;;;5026928;28;20084;-65
2023/03/20 11:56:22;;;;;;;20.35;11.15;;;10.40;99.90;;;;;;5028951;28;19924;-65
2023/03/20 11:59:11;;;;;;;19.30;10.23;;;10.40;99.90;;;;;;5012609;28;20087;-66
2023/03/20 12:01:45;;;;;;;17.05;8.93;;;10.50;99.90;;;;;;5016309;28;20037;-65
2023/03/20 12:04:33;;;;;;;18.73;9.15;;;10.50;99.90;;;;;;5008386;28;20033;-64
2023/03/20 12:07:31;;;;;;;16.40;9.32;;;10.50;99.90;;;;;;5028177;28;20052;-65
2023/03/20 12:10:01;;;;;;;15.52;9.32;;;10.50;99.90;;;;;;5018417;28;20045;-65
2023/03/20 12:12:35;;;;;;;17.52;9.57;;;10.60;99.90;;;;;;5029343;28;20044;-65
2023/03/20 12:15:09;;;;;;;15.63;8.05;;;10.60;99.90;;;;;;5029000;28;20112;-65
2023/03/20 12:18:01;;;;;;;14.13;7.50;;;10.60;99.90;;;;;;5015866;28;20036;-65
2023/03/20 12:20:45;;;;;;;10.93;6.47;;;10.60;99.90;;;;;;5020506;28;21013;-65
2023/03/20 12:23:44;;;;;;;13.93;6.88;;;10.60;99.90;;;;;;5024248;28;20128;-64
2023/03/20 12:26:17;;;;;;;12.50;6.68;;;10.70;99.90;;;;;;5001364;28;20104;-65
2023/03/20 12:28:45;;;;;;;13.93;6.63;;;10.70;99.90;;;;;;5025224;28;20038;-65
2023/03/20 12:31:21;;;;;;;12.15;6.10;;;10.80;99.90;;;;;;5021626;28;20037;-63
2023/03/20 12:34:04;;;;;;;9.90;6.20;;;10.70;99.90;;;;;;5018489;28;20030;-64
2023/03/20 12:36:37;;;;;;;13.05;6.72;;;10.70;99.90;;;;;;5020928;28;20449;-63
2023/03/20 12:39:05;;;;;;;10.60;6.15;;;10.80;99.90;;;;;;5024400;28;20510;-65
2023/03/20 12:41:42;;;;;;;9.45;5.75;;;10.80;99.90;;;;;;5024266;28;20092;-64
2023/03/20 12:44:28;;;;;;;14.60;5.55;;;10.70;99.90;;;;;;5020254;28;20030;-65
2023/03/20 12:47:26;;;;;;;12.52;6.35;;;10.60;99.90;;;;;;5023568;28;20046;-65
2023/03/20 12:50:30;;;;;;;14.88;6.93;;;10.60;99.90;;;;;;4970597;28;20130;-64
2023/03/20 12:53:15;;;;;;;10.75;5.75;;;10.60;99.90;;;;;;4987929;28;20049;-64
2023/03/20 12:56:29;;;;;;;10.68;5.78;;;10.60;99.90;;;;;;5021375;28;20174;-64
2023/03/20 12:59:16;;;;;;;9.95;6.30;;;10.70;99.90;;;;;;5016482;28;20338;-63
2023/03/20 13:01:57;;;;;;;12.05;6.40;;;10.60;99.90;;;;;;5004256;28;20108;-64